createdAt,value
2022-10-11T00:00:43.266Z,1025.716919
2022-10-11T00:01:44.609Z,1025.754517
2022-10-11T00:02:45.009Z,1025.741577
2022-10-11T00:03:49.170Z,1025.778442
2022-10-11T00:04:46.169Z,1025.832031
2022-10-11T00:05:44.443Z,1025.75769
2022-10-11T00:06:44.739Z,1025.802734
2022-10-11T00:07:44.701Z,1025.843384
2022-10-11T00:08:42.739Z,1025.824097
2022-10-11T00:09:43.968Z,1025.786743
2022-10-11T00:10:47.199Z,1025.816528
2022-10-11T00:11:47.414Z,1025.768433
2022-10-11T00:12:44.838Z,1025.805786
2022-10-11T00:14:54.985Z,1025.818726
2022-10-11T00:15:58.579Z,1025.837891
2022-10-11T00:16:58.709Z,1025.861572
2022-10-11T00:18:05.389Z,1025.851318
2022-10-11T00:18:59.245Z,1025.859375
2022-10-11T00:20:00.246Z,1025.870117
2022-10-11T00:21:48.330Z,1025.902344
2022-10-11T00:22:29.879Z,1025.904541
2022-10-11T00:23:30.054Z,1025.918579
2022-10-11T00:24:29.035Z,1025.945313
2022-10-11T00:25:36.969Z,1025.94751
2022-10-11T00:26:33.595Z,1025.934448
2022-10-11T00:27:36.599Z,1025.923706
2022-10-11T00:28:34.779Z,1025.961304
2022-10-11T00:30:37.774Z,1025.988037
2022-10-11T00:31:36.065Z,1025.990112
2022-10-11T00:32:36.807Z,1026.012207
2022-10-11T00:33:33.206Z,1026.027588
2022-10-11T00:35:34.724Z,1025.973999
2022-10-11T00:36:36.164Z,1025.987793
2022-10-11T00:37:37.723Z,1025.996094
2022-10-11T00:38:34.076Z,1026.004028
2022-10-11T00:39:47.438Z,1026.020264
2022-10-11T00:40:43.826Z,1025.947388
2022-10-11T00:41:48.314Z,1025.966675
2022-10-11T00:42:42.631Z,1026.011719
2022-10-11T00:43:49.427Z,1026.011719
2022-10-11T00:44:45.751Z,1026.00647
2022-10-11T00:45:49.160Z,1025.972168
2022-10-11T00:46:47.301Z,1025.98291
2022-10-11T00:47:47.781Z,1026.038574
2022-10-11T00:49:52.714Z,1025.979614
2022-10-11T00:50:50.707Z,1025.95813
2022-10-11T00:51:52.396Z,1025.974243
2022-10-11T00:52:52.707Z,1025.950562
2022-10-11T00:54:56.132Z,1026.028076
2022-10-11T00:55:52.768Z,1026.003906
2022-10-11T00:56:57.069Z,1026.033447
2022-10-11T00:57:57.233Z,1026.065552
2022-10-11T00:59:00.171Z,1026.078979
2022-10-11T00:59:59.086Z,1026.062866
2022-10-11T01:01:02.554Z,1026.0896
2022-10-11T01:02:02.856Z,1026.095459
2022-10-11T01:03:05.867Z,1026.065552
2022-10-11T01:04:06.344Z,1026.090088
2022-10-11T01:05:28.238Z,1026.086792
2022-10-11T01:05:28.845Z,1026.086792
2022-10-11T01:05:30.773Z,1026.086792
2022-10-11T01:06:09.273Z,1026.057739
2022-10-11T01:07:10.997Z,1026.108398
2022-10-11T01:08:08.630Z,1026.081543
2022-10-11T01:10:10.776Z,1026.12439
2022-10-11T01:11:10.143Z,1026.078979
2022-10-11T01:12:11.084Z,1026.084473
2022-10-11T01:13:10.768Z,1026.135376
2022-10-11T01:16:37.706Z,1026.186401
2022-10-11T01:16:44.246Z,1026.148926
2022-10-11T01:17:46.418Z,1026.218506
2022-10-11T01:18:43.799Z,1026.213257
2022-10-11T01:20:38.831Z,1026.191772
2022-10-11T01:21:34.269Z,1026.199707
2022-10-11T01:22:35.118Z,1026.175903
2022-10-11T01:23:33.302Z,1026.181274
2022-10-11T01:24:35.314Z,1026.17041
2022-10-11T01:25:33.318Z,1026.15686
2022-10-11T01:26:32.316Z,1026.164673
2022-10-11T01:27:31.386Z,1026.250244
2022-10-11T01:28:37.089Z,1026.207397
2022-10-11T01:29:32.670Z,1026.261108
2022-10-11T01:30:37.788Z,1026.317383
2022-10-11T01:31:33.224Z,1026.220825
2022-10-11T01:32:34.740Z,1026.271729
2022-10-11T01:33:29.079Z,1026.312134
2022-10-11T01:35:26.224Z,1026.2771
2022-10-11T01:36:28.890Z,1026.255737
2022-10-11T01:37:25.379Z,1026.287842
2022-10-11T01:38:24.711Z,1026.199585
2022-10-11T01:40:20.391Z,1026.333618
2022-10-11T01:41:14.757Z,1026.285156
2022-10-11T01:42:16.507Z,1026.290771
2022-10-11T01:43:15.569Z,1026.279785
2022-10-11T01:45:11.225Z,1026.293213
2022-10-11T01:46:14.458Z,1026.220703
2022-10-11T01:47:12.528Z,1026.282593
2022-10-11T01:48:11.921Z,1026.229004
2022-10-11T01:50:12.149Z,1026.161743
2022-10-11T01:51:10.134Z,1026.236694
2022-10-11T01:52:13.687Z,1026.271729
2022-10-11T01:53:07.888Z,1026.226074
2022-10-11T01:55:10.184Z,1026.271851
2022-10-11T01:56:07.779Z,1026.245117
2022-10-11T01:57:03.941Z,1026.226196
2022-10-11T01:58:10.004Z,1026.164673
2022-10-11T01:59:05.265Z,1026.290771
2022-10-11T02:00:08.772Z,1026.272217
2022-10-11T02:01:03.238Z,1026.269409
2022-10-11T02:02:05.180Z,1026.231567
2022-10-11T02:02:58.544Z,1026.229248
2022-10-11T02:05:00.727Z,1026.279907
2022-10-11T02:05:54.049Z,1026.258667
2022-10-11T02:06:59.403Z,1026.255859
2022-10-11T02:07:51.971Z,1026.255859
2022-10-11T09:52:12.615Z,1028.480713
2022-10-11T09:52:48.508Z,1028.55481
2022-10-11T09:53:45.913Z,1028.5177
2022-10-11T09:55:39.031Z,1028.589722
2022-10-11T09:56:38.294Z,1028.651245
2022-10-11T09:57:33.471Z,1028.621948
2022-10-11T09:58:31.892Z,1028.545532
2022-10-11T10:00:24.468Z,1028.623413
2022-10-11T10:01:18.828Z,1028.616089
2022-10-11T10:02:19.698Z,1028.62439
2022-10-11T10:03:11.062Z,1028.630127
2022-10-11T10:04:09.957Z,1028.617432
2022-10-11T10:05:05.091Z,1028.631714
2022-10-11T10:07:46.838Z,1028.654785
2022-10-11T10:08:43.998Z,1028.630127
2022-10-11T10:10:39.513Z,1028.600464
2022-10-11T10:11:31.089Z,1028.684082
2022-10-11T10:12:30.244Z,1028.714111
2022-10-11T10:13:24.407Z,1028.663452
2022-10-11T10:14:20.745Z,1028.692749
2022-10-11T10:15:22.736Z,1028.692749
2022-10-11T10:16:14.261Z,1028.746704
2022-10-11T10:17:12.404Z,1028.698364
2022-10-11T10:18:06.635Z,1028.75293
2022-10-11T10:20:02.708Z,1028.719116
2022-10-11T10:20:54.985Z,1028.749512
2022-10-11T10:21:55.047Z,1028.758423
2022-10-11T10:22:45.481Z,1028.723267
2022-10-11T10:23:42.236Z,1028.751343
2022-10-11T10:24:38.968Z,1028.783569
2022-10-11T10:25:32.272Z,1028.827148
2022-10-11T10:26:30.511Z,1028.770508
2022-10-11T10:27:24.596Z,1028.86853
2022-10-11T10:28:24.468Z,1028.865601
2022-10-11T10:29:15.783Z,1028.860352
2022-10-11T10:30:15.955Z,1028.855103
2022-10-11T10:31:08.603Z,1028.83374
2022-10-11T10:32:13.975Z,1028.831787
2022-10-11T10:32:14.225Z,1028.831787
2022-10-11T10:32:15.323Z,1028.831787
2022-10-11T10:33:53.229Z,1028.812012
2022-10-11T10:34:32.471Z,1028.895874
2022-10-11T10:35:30.562Z,1028.863647
2022-10-11T10:36:29.532Z,1028.903809
2022-10-11T10:37:24.851Z,1028.858643
2022-10-11T10:38:26.813Z,1028.783325
2022-10-11T10:40:18.532Z,1028.827026
2022-10-11T10:41:13.646Z,1028.867798
2022-10-11T10:42:13.139Z,1028.77417
2022-10-11T10:43:13.589Z,1028.781616
2022-10-11T10:44:11.309Z,1028.770874
2022-10-11T10:45:11.903Z,1028.765259
2022-10-11T10:45:13.706Z,1028.765259
2022-10-11T10:46:05.412Z,1028.772827
2022-10-11T10:47:00.354Z,1028.724243
2022-10-11T10:48:00.332Z,1028.640991
2022-10-11T10:49:34.463Z,1028.684082
2022-10-11T10:49:55.279Z,1028.705444
2022-10-11T10:50:54.122Z,1028.729492
2022-10-11T10:51:49.717Z,1028.683838
2022-10-11T10:52:47.061Z,1028.710815
2022-10-11T10:53:46.594Z,1028.732422
2022-10-11T10:55:45.503Z,1028.713379
2022-10-11T10:56:38.354Z,1028.667603
2022-10-11T10:57:38.140Z,1028.735107
2022-10-11T10:58:33.518Z,1028.678589
2022-10-11T10:59:33.529Z,1028.737549
2022-10-11T11:00:28.738Z,1028.790649
2022-10-11T11:01:29.255Z,1028.742065
2022-10-11T11:02:40.178Z,1028.742065
2022-10-11T11:02:40.669Z,1028.742065
2022-10-11T11:02:41.530Z,1028.742065
2022-10-11T11:03:25.445Z,1028.734131
2022-10-11T11:04:20.656Z,1028.734131
2022-10-11T11:05:22.970Z,1028.728516
2022-10-11T11:06:15.668Z,1028.67688
2022-10-11T11:07:18.079Z,1028.674438
2022-10-11T11:08:10.687Z,1028.647461
2022-10-11T11:10:06.061Z,1028.628296
2022-10-11T11:11:08.624Z,1028.609741
2022-10-11T11:12:01.330Z,1028.625854
2022-10-11T11:13:00.870Z,1028.544922
2022-10-11T11:14:55.802Z,1028.622437
2022-10-11T11:15:51.219Z,1028.609741
2022-10-11T11:16:45.685Z,1028.533569
2022-10-11T11:17:25.300Z,1028.63269
2022-10-11T11:18:22.874Z,1028.583374
2022-10-11T11:20:18.411Z,1028.556396
2022-10-11T11:21:18.655Z,1028.532715
2022-10-11T11:22:13.881Z,1028.551147
2022-10-11T11:23:15.256Z,1028.616577
2022-10-11T11:24:10.562Z,1028.540894
2022-10-11T11:25:10.262Z,1028.505737
2022-10-11T11:26:05.938Z,1028.522339
2022-10-11T11:27:07.744Z,1028.581909
2022-10-11T11:28:01.995Z,1028.592651
2022-10-11T11:29:57.442Z,1028.479248
2022-10-11T11:30:56.822Z,1028.525269
2022-10-11T11:31:51.585Z,1028.549316
2022-10-11T11:32:53.991Z,1028.506226
2022-10-11T11:33:48.952Z,1028.509033
2022-10-11T11:34:46.476Z,1028.541382
2022-10-11T11:35:41.771Z,1028.484497
2022-10-11T11:36:41.705Z,1028.495239
2022-10-11T11:37:36.512Z,1028.522339
2022-10-11T11:38:36.719Z,1028.444458
2022-10-11T11:39:31.915Z,1028.452759
2022-10-11T11:40:35.594Z,1028.525513
2022-10-11T11:41:28.243Z,1028.38562
2022-10-11T11:42:27.984Z,1028.450439
2022-10-11T11:43:23.244Z,1028.48584
2022-10-11T11:45:23.089Z,1028.396362
2022-10-11T11:46:15.783Z,1028.378052
2022-10-11T11:47:15.493Z,1028.404907
2022-10-11T11:48:10.354Z,1028.342529
2022-10-11T11:49:12.953Z,1028.388672
2022-10-11T11:50:05.224Z,1028.353394
2022-10-11T11:51:05.194Z,1028.404907
2022-10-11T11:52:00.265Z,1028.378052
2022-10-11T11:53:25.329Z,1028.396362
2022-10-11T11:54:05.136Z,1028.390747
2022-10-11T11:55:04.233Z,1028.333984
2022-10-11T11:56:04.189Z,1028.349976
2022-10-11T11:57:00.191Z,1028.296143
2022-10-11T11:58:03.288Z,1028.369141
2022-10-11T11:58:07.227Z,1028.369141
2022-10-11T11:59:55.201Z,1028.320435
2022-10-11T12:00:54.928Z,1028.339233
2022-10-11T12:01:50.454Z,1028.269165
2022-10-11T12:02:51.803Z,1028.296143
2022-10-11T12:03:48.356Z,1028.307007
2022-10-11T12:05:44.373Z,1028.21521
2022-10-11T12:07:04.144Z,1028.288086
2022-10-11T12:07:11.181Z,1028.288086
2022-10-11T12:07:11.437Z,1028.288086
2022-10-11T12:07:43.516Z,1028.247437
2022-10-11T12:08:39.902Z,1028.257935
2022-10-11T12:10:38.688Z,1028.247437
2022-10-11T12:11:41.616Z,1028.204346
2022-10-11T12:12:35.313Z,1028.272095
2022-10-11T12:13:38.228Z,1028.205322
2022-10-11T12:15:34.617Z,1028.218262
2022-10-11T12:16:27.674Z,1028.175171
2022-10-11T12:17:28.203Z,1028.32605
2022-10-11T12:18:23.637Z,1028.236938
2022-10-11T12:19:23.772Z,1028.256104
2022-10-11T12:20:19.144Z,1028.169922
2022-10-11T12:21:20.168Z,1028.236938
2022-10-11T12:22:15.814Z,1028.20166
2022-10-11T12:23:20.139Z,1028.179932
2022-10-11T12:25:18.422Z,1028.212158
2022-10-11T12:26:12.643Z,1028.177002
2022-10-11T12:27:13.223Z,1028.163574
2022-10-11T12:28:08.870Z,1028.233521
2022-10-11T12:30:04.683Z,1028.187378
2022-10-11T12:31:00.069Z,1028.098633
2022-10-11T12:31:59.725Z,1028.163574
2022-10-11T12:33:01.119Z,1028.128174
2022-10-11T12:33:54.438Z,1028.120361
2022-10-11T12:34:54.743Z,1028.128174
2022-10-11T12:35:52.856Z,1028.058228
2022-10-11T12:36:53.379Z,1028.061157
2022-10-11T12:37:51.397Z,1028.072144
2022-10-11T12:38:51.112Z,1028.01001
2022-10-11T12:40:47.349Z,1028.037109
2022-10-11T12:41:43.696Z,1028.037109
2022-10-11T12:42:41.517Z,1028.028931
2022-10-11T12:44:22.357Z,1028.039307
2022-10-11T12:45:00.134Z,1028.081787
2022-10-11T12:45:58.395Z,1028.03064
2022-10-11T12:46:58.994Z,1028.027466
2022-10-11T12:47:55.336Z,1028.038208
2022-10-11T12:48:55.718Z,1027.944458
2022-10-11T12:50:51.798Z,1027.969238
2022-10-11T12:51:47.786Z,1027.955566
2022-10-11T12:52:48.307Z,1027.950317
2022-10-11T12:53:44.525Z,1027.988159
2022-10-11T12:54:47.087Z,1027.910278
2022-10-11T12:55:41.460Z,1027.955933
2022-10-11T12:56:41.208Z,1027.94519
2022-10-11T12:57:36.819Z,1027.972168
2022-10-11T12:58:37.285Z,1027.937256
2022-10-11T12:59:33.527Z,1027.939819
2022-10-11T13:00:36.699Z,1027.921143
2022-10-11T13:01:30.356Z,1027.972168
2022-10-11T13:02:30.505Z,1027.953369
2022-10-11T13:03:31.218Z,1027.969482
2022-10-11T13:03:32.649Z,1027.969482
2022-10-11T13:04:27.510Z,1027.896362
2022-10-11T13:05:25.790Z,1027.904541
2022-10-11T13:06:21.361Z,1027.920654
2022-10-11T13:07:21.897Z,1027.950317
2022-10-11T13:08:20.049Z,1027.915527
2022-10-11T13:10:21.508Z,1027.856201
2022-10-11T13:11:14.744Z,1027.867188
2022-10-11T13:12:14.931Z,1027.9021
2022-10-11T13:13:10.424Z,1027.84021
2022-10-11T13:15:06.843Z,1027.797241
2022-10-11T13:16:10.113Z,1027.834961
2022-10-11T13:17:04.345Z,1027.826904
2022-10-11T13:18:06.162Z,1027.799927
2022-10-11T13:20:02.449Z,1027.859009
2022-10-11T13:21:26.203Z,1027.786377
2022-10-11T13:22:06.534Z,1027.78064
2022-10-11T13:23:06.656Z,1027.802002
2022-10-11T13:24:02.137Z,1027.802002
2022-10-11T13:25:01.774Z,1027.820801
2022-10-11T13:25:57.233Z,1027.796753
2022-10-11T13:26:56.632Z,1027.856201
2022-10-11T13:27:54.495Z,1027.818481
2022-10-11T13:28:53.812Z,1027.856201
2022-10-11T13:30:49.138Z,1027.759399
2022-10-11T13:31:49.594Z,1027.770264
2022-10-11T13:32:46.634Z,1027.708252
2022-10-11T13:33:46.851Z,1027.762085
2022-10-11T13:34:41.998Z,1027.781128
2022-10-11T13:35:41.822Z,1027.759888
2022-10-11T13:36:37.057Z,1027.724731
2022-10-11T13:37:39.416Z,1027.68457
2022-10-11T13:38:32.157Z,1027.711548
2022-10-11T13:39:32.053Z,1027.677002
2022-10-11T13:40:32.995Z,1027.720093
2022-10-11T13:41:26.015Z,1027.738525
2022-10-11T13:42:23.975Z,1027.679443
2022-10-11T13:43:23.884Z,1027.674194
2022-10-11T13:44:19.186Z,1027.682617
2022-10-11T13:45:21.665Z,1027.690186
2022-10-11T13:46:14.991Z,1027.755005
2022-10-11T13:47:17.657Z,1027.728027
2022-10-11T13:48:10.566Z,1027.685059
2022-10-11T13:49:13.875Z,1027.701172
2022-10-11T13:50:11.703Z,1027.690186
2022-10-11T13:51:07.125Z,1027.682617
2022-10-11T13:52:02.552Z,1027.663208
2022-10-11T13:53:02.145Z,1027.687866
2022-10-11T13:54:00.080Z,1027.660889
2022-10-11T13:55:38.738Z,1027.602661
2022-10-11T13:57:15.920Z,1027.614502
2022-10-11T13:57:54.877Z,1027.689087
2022-10-11T13:58:54.472Z,1027.619019
2022-10-11T13:59:48.744Z,1027.55481
2022-10-11T14:00:47.813Z,1027.617798
2022-10-11T14:01:42.151Z,1027.567383
2022-10-11T14:02:39.110Z,1027.556885
2022-10-11T14:03:36.113Z,1027.576904
2022-10-11T14:05:28.338Z,1027.606689
2022-10-11T14:06:22.702Z,1027.6427
2022-10-11T14:07:20.888Z,1027.637451
2022-10-11T14:08:16.121Z,1027.562012
2022-10-11T14:09:17.367Z,1027.653687
2022-10-11T14:10:08.813Z,1027.702515
2022-10-11T14:11:10.335Z,1027.640747
2022-10-11T14:12:02.678Z,1027.624512
2022-10-11T14:13:00.184Z,1027.616333
2022-10-11T14:13:55.337Z,1027.662354
2022-10-11T14:14:54.027Z,1027.605347
2022-10-11T14:15:48.423Z,1027.613525
2022-10-11T14:16:47.012Z,1027.624512
2022-10-11T14:17:41.418Z,1027.573242
2022-10-11T14:18:37.045Z,1027.549194
2022-10-11T14:20:33.128Z,1027.558228
2022-10-11T14:21:24.979Z,1027.630615
2022-10-11T14:22:23.187Z,1027.606934
2022-10-11T14:23:18.830Z,1027.483032
2022-10-11T14:24:21.437Z,1027.574707
2022-10-11T14:25:13.014Z,1027.550171
2022-10-11T14:26:18.684Z,1027.550293
2022-10-11T14:27:11.177Z,1027.515625
2022-10-11T14:28:42.502Z,1027.504883
2022-10-11T14:30:26.523Z,1027.522705
2022-10-11T14:30:27.781Z,1027.522705
2022-10-11T14:31:29.701Z,1027.511841
2022-10-11T14:32:20.380Z,1027.527832
2022-10-11T14:33:15.699Z,1027.500854
2022-10-11T14:34:12.840Z,1027.55481
2022-10-11T14:35:12.469Z,1027.541992
2022-10-11T14:36:07.592Z,1027.539185
2022-10-11T14:37:08.681Z,1027.553467
2022-10-11T14:38:04.162Z,1027.52124
2022-10-11T14:39:04.162Z,1027.63147
2022-10-11T14:39:59.411Z,1027.519043
2022-10-11T14:41:01.224Z,1027.548584
2022-10-11T14:41:53.651Z,1027.50293
2022-10-11T14:42:54.080Z,1027.481567
2022-10-11T14:43:49.428Z,1027.543457
2022-10-11T14:45:45.512Z,1027.530273
2022-10-11T14:46:45.281Z,1027.541138
2022-10-11T14:47:43.113Z,1027.559937
2022-10-11T14:48:54.934Z,1027.52771
2022-10-11T14:48:55.515Z,1027.52771
2022-10-11T14:48:56.232Z,1027.52771
2022-10-11T14:50:36.150Z,1027.516479
2022-10-11T14:51:36.240Z,1027.551636
2022-10-11T14:52:31.599Z,1027.519409
2022-10-11T14:53:31.061Z,1027.522217
2022-10-11T14:55:25.990Z,1027.616699
2022-10-11T14:56:21.821Z,1027.511597
2022-10-11T14:57:20.966Z,1027.541626
2022-10-11T14:58:16.122Z,1027.547119
2022-10-11T15:00:14.263Z,1027.520264
2022-10-11T15:01:16.958Z,1027.52356
2022-10-11T15:02:09.297Z,1027.54187
2022-10-11T15:03:11.456Z,1027.507324
2022-10-11T15:05:03.524Z,1027.515015
2022-10-11T15:05:58.822Z,1027.434204
2022-10-11T15:06:56.217Z,1027.47522
2022-10-11T15:07:57.590Z,1027.423706
2022-10-11T15:10:04.853Z,1027.479492
2022-10-11T15:10:58.908Z,1027.409058
2022-10-11T15:12:01.232Z,1027.352417
2022-10-11T15:12:53.816Z,1027.401123
2022-10-11T15:15:46.959Z,1027.317993
2022-10-11T15:17:10.943Z,1027.299194
2022-10-11T15:17:49.363Z,1027.284668
2022-10-11T15:18:46.993Z,1027.361084
2022-10-11T15:20:41.683Z,1027.348999
2022-10-11T15:21:40.167Z,1027.360107
2022-10-11T15:22:34.296Z,1027.425293
2022-10-11T15:23:32.465Z,1027.294189
2022-10-11T15:25:24.080Z,1027.327393
2022-10-11T15:26:18.324Z,1027.317017
2022-10-11T15:27:19.231Z,1027.341675
2022-10-11T15:28:11.117Z,1027.293335
2022-10-11T15:30:03.606Z,1027.299072
2022-10-11T15:31:00.833Z,1027.259277
2022-10-11T15:31:55.189Z,1027.207886
2022-10-11T15:32:51.186Z,1027.264893
2022-10-11T15:33:49.189Z,1027.321167
2022-10-11T15:35:39.377Z,1027.238403
2022-10-11T15:36:36.098Z,1027.278564
2022-10-11T15:37:33.833Z,1027.28186
2022-10-11T15:37:37.443Z,1027.28186
2022-10-11T15:38:32.029Z,1027.230347
2022-10-11T15:40:23.423Z,1027.260132
2022-10-11T15:41:14.227Z,1027.289429
2022-10-11T15:42:14.926Z,1027.289429
2022-10-11T15:43:06.221Z,1027.319702
2022-10-11T15:44:06.595Z,1027.357422
2022-10-11T15:45:00.444Z,1027.293091
2022-10-11T15:45:55.259Z,1027.325562
2022-10-11T15:46:53.489Z,1027.282593
2022-10-11T15:47:47.504Z,1027.296265
2022-10-11T15:48:47.960Z,1027.352905
2022-10-11T15:49:40.085Z,1027.388062
2022-10-11T15:50:36.007Z,1027.305176
2022-10-11T15:52:17.250Z,1027.258545
2022-10-11T15:54:34.946Z,1027.310181
2022-10-11T15:55:13.940Z,1027.342407
2022-10-11T15:56:11.119Z,1027.345703
2022-10-11T15:57:10.475Z,1027.346069
2022-10-11T15:58:06.544Z,1027.330444
2022-10-11T15:59:05.067Z,1027.403809
2022-10-11T15:59:59.823Z,1027.366333
2022-10-11T16:00:59.294Z,1027.393677
2022-10-11T16:01:53.940Z,1027.359375
2022-10-11T16:02:55.612Z,1027.375854
2022-10-11T16:03:51.335Z,1027.430054
2022-10-11T16:04:51.831Z,1027.322266
2022-10-11T16:05:53.233Z,1027.397827
2022-10-11T16:06:53.623Z,1027.368652
2022-10-11T16:07:47.688Z,1027.376831
2022-10-11T16:08:49.721Z,1027.363647
2022-10-11T16:10:43.076Z,1027.437134
2022-10-11T16:11:38.373Z,1027.388794
2022-10-11T16:12:37.892Z,1027.313599
2022-10-11T16:13:33.187Z,1027.427002
2022-10-11T16:15:26.260Z,1027.389404
2022-10-11T16:16:27.639Z,1027.392334
2022-10-11T16:17:22.034Z,1027.335938
2022-10-11T16:18:20.952Z,1027.338745
2022-10-11T16:20:18.671Z,1027.37085
2022-10-11T16:21:10.875Z,1027.374146
2022-10-11T16:22:16.588Z,1027.363525
2022-10-11T16:23:14.617Z,1027.322876
2022-10-11T16:24:17.061Z,1027.385254
2022-10-11T16:25:09.250Z,1027.425171
2022-10-11T16:26:08.469Z,1027.369263
2022-10-11T16:27:02.328Z,1027.371826
2022-10-11T16:28:02.292Z,1027.404907
2022-10-11T16:29:06.628Z,1027.477173
2022-10-11T16:32:16.221Z,1027.355469
2022-10-11T16:33:54.488Z,1027.316406
2022-10-11T16:34:53.318Z,1027.246094
2022-10-11T16:35:53.463Z,1027.307861
2022-10-11T16:36:53.593Z,1027.301025
2022-10-11T16:37:48.328Z,1027.286133
2022-10-11T16:38:47.449Z,1027.340576
2022-10-11T16:40:32.112Z,1027.378662
2022-10-11T16:41:14.843Z,1027.41394
2022-10-11T16:42:12.215Z,1027.362793
2022-10-11T16:43:17.721Z,1027.363525
2022-10-11T16:45:11.121Z,1027.337158
2022-10-11T16:46:07.895Z,1027.421143
2022-10-11T16:47:10.897Z,1027.389282
2022-10-11T16:48:05.378Z,1027.411011
2022-10-11T16:49:04.875Z,1027.443481
2022-10-11T16:51:03.943Z,1027.487305
2022-10-11T16:51:58.113Z,1027.479004
2022-10-11T16:52:56.026Z,1027.503784
2022-10-11T16:53:58.850Z,1027.501343
2022-10-11T16:54:58.798Z,1027.498535
2022-10-11T16:55:50.633Z,1027.530884
2022-10-11T16:56:48.336Z,1027.444702
2022-10-11T16:57:49.221Z,1027.517578
2022-10-11T16:58:48.142Z,1027.46167
2022-10-11T17:00:48.810Z,1027.5177
2022-10-11T17:01:47.873Z,1027.480225
2022-10-11T17:02:45.238Z,1027.523804
2022-10-11T17:03:44.239Z,1027.429688
2022-10-11T17:05:40.691Z,1027.518677
2022-10-11T17:06:35.878Z,1027.443359
2022-10-11T17:07:36.569Z,1027.550903
2022-10-11T17:08:28.490Z,1027.502441
2022-10-11T17:10:26.403Z,1027.479004
2022-10-11T17:11:21.139Z,1027.529419
2022-10-11T17:12:22.949Z,1027.545654
2022-10-11T17:13:24.559Z,1027.489624
2022-10-11T17:15:18.188Z,1027.505737
2022-10-11T17:16:16.910Z,1027.561646
2022-10-11T17:17:23.286Z,1027.540283
2022-10-11T17:18:18.385Z,1027.57251
2022-10-11T17:19:22.656Z,1027.464966
2022-10-11T17:20:17.981Z,1027.513428
2022-10-11T17:21:17.003Z,1027.514038
2022-10-11T17:22:15.031Z,1027.503296
2022-10-11T17:23:09.876Z,1027.546143
2022-10-11T17:24:14.639Z,1027.492554
2022-10-11T17:25:13.620Z,1027.436035
2022-10-11T17:26:11.422Z,1027.479614
2022-10-11T17:27:46.467Z,1027.51123
2022-10-11T17:29:33.100Z,1027.48645
2022-10-11T17:30:12.671Z,1027.421875
2022-10-11T17:31:11.667Z,1027.475708
2022-10-11T17:32:11.528Z,1027.513428
2022-10-11T17:33:06.368Z,1027.505859
2022-10-11T17:34:06.456Z,1027.567871
2022-10-11T17:36:00.649Z,1027.476318
2022-10-11T17:36:57.675Z,1027.546265
2022-10-11T17:38:05.982Z,1027.589355
2022-10-11T17:38:44.789Z,1027.530029
2022-10-11T17:39:45.572Z,1027.551636
2022-10-11T17:40:42.291Z,1027.578491
2022-10-11T17:41:49.805Z,1027.422729
2022-10-11T17:42:42.540Z,1027.581299
2022-10-11T17:43:41.297Z,1027.443726
2022-10-11T17:45:43.479Z,1027.471313
2022-10-11T17:46:41.594Z,1027.602539
2022-10-11T17:47:44.679Z,1027.562378
2022-10-11T17:48:40.815Z,1027.540894
2022-10-11T17:50:39.373Z,1027.538208
2022-10-11T17:51:38.216Z,1027.527954
2022-10-11T17:52:37.078Z,1027.530151
2022-10-11T17:53:37.514Z,1027.535522
2022-10-11T17:55:39.483Z,1027.556885
2022-10-11T17:56:38.290Z,1027.554688
2022-10-11T17:57:31.326Z,1027.484741
2022-10-11T17:58:34.884Z,1027.533203
2022-10-11T17:59:30.358Z,1027.538452
2022-10-11T18:00:35.484Z,1027.519775
2022-10-11T18:01:28.928Z,1027.568115
2022-10-11T18:02:31.840Z,1027.509033
2022-10-11T18:03:24.404Z,1027.500854
2022-10-11T18:05:23.176Z,1027.591919
2022-10-11T18:06:17.492Z,1027.624146
2022-10-11T18:07:18.603Z,1027.576294
2022-10-11T18:08:13.017Z,1027.570923
2022-10-11T18:09:19.560Z,1027.549438
2022-10-11T18:10:52.561Z,1027.533081
2022-10-11T18:12:19.411Z,1027.538452
2022-10-11T18:12:58.018Z,1027.549316
2022-10-11T18:14:09.436Z,1027.454956
2022-10-11T18:15:11.009Z,1027.549316
2022-10-11T18:16:08.257Z,1027.538452
2022-10-11T18:17:10.524Z,1027.53833
2022-10-11T18:18:15.963Z,1027.661865
2022-10-11T18:20:16.499Z,1027.581177
2022-10-11T18:21:11.224Z,1027.624512
2022-10-11T18:22:10.423Z,1027.576294
2022-10-11T18:23:09.604Z,1027.626587
2022-10-11T18:25:12.976Z,1027.516846
2022-10-11T18:26:16.529Z,1027.565308
2022-10-11T18:27:17.841Z,1027.613525
2022-10-11T18:28:17.277Z,1027.616333
2022-10-11T18:29:12.648Z,1027.613525
2022-10-11T18:30:13.062Z,1027.645508
2022-10-11T18:31:13.488Z,1027.605347
2022-10-11T18:32:07.513Z,1027.581055
2022-10-11T18:33:06.578Z,1027.5625
2022-10-11T18:34:02.883Z,1027.659058
2022-10-11T18:35:08.949Z,1027.605347
2022-10-11T18:36:19.673Z,1027.546387
2022-10-11T18:37:10.753Z,1027.592163
2022-10-11T18:38:09.719Z,1027.524658
2022-10-11T18:39:07.444Z,1027.576172
2022-10-11T18:41:05.781Z,1027.651001
2022-10-11T18:42:04.945Z,1027.62146
2022-10-11T18:43:04.305Z,1027.535645
2022-10-11T18:43:59.613Z,1027.60791
2022-10-11T18:45:54.548Z,1027.631958
2022-10-11T18:47:23.129Z,1027.619019
2022-10-11T18:48:04.378Z,1027.565308
2022-10-11T18:49:02.001Z,1027.613037
2022-10-11T18:50:59.179Z,1027.527832
2022-10-11T18:52:02.665Z,1027.55127
2022-10-11T18:53:01.618Z,1027.599487
